createdAt,value
2019-01-24T00:00:39.916Z,101424.33
2019-01-24T00:03:09.045Z,101429.81
2019-01-24T00:05:38.181Z,101432.19
2019-01-24T00:08:07.238Z,101430.84
2019-01-24T00:10:36.320Z,101435.47
2019-01-24T00:13:05.493Z,101438.00
2019-01-24T00:15:34.621Z,101433.86
2019-01-24T00:18:03.754Z,101433.47
2019-01-24T00:20:32.951Z,101435.73
2019-01-24T00:23:02.018Z,101436.87
2019-01-24T00:25:31.113Z,101433.05
2019-01-24T00:28:00.207Z,101440.03
2019-01-24T00:30:29.373Z,101442.59
2019-01-24T00:32:58.492Z,101436.17
2019-01-24T00:35:27.651Z,101436.64
2019-01-24T00:37:56.782Z,101442.42
2019-01-24T00:40:25.968Z,101444.47
2019-01-24T00:42:55.102Z,101443.95
2019-01-24T00:45:24.198Z,101443.33
2019-01-24T00:47:53.381Z,101443.78
2019-01-24T00:50:22.573Z,101448.38
2019-01-24T00:52:51.671Z,101444.63
2019-01-24T00:55:21.487Z,101454.19
2019-01-24T00:57:50.595Z,101463.33
2019-01-24T01:00:21.842Z,101458.40
2019-01-24T01:02:51.015Z,101463.05
2019-01-24T01:05:20.326Z,101463.19
2019-01-24T01:07:49.596Z,101468.16
2019-01-24T01:10:18.718Z,101465.91
2019-01-24T01:12:47.838Z,101465.77
2019-01-24T01:15:17.963Z,101465.51
2019-01-24T01:17:47.068Z,101471.94
2019-01-24T01:20:20.849Z,101475.30
2019-01-24T01:22:50.073Z,101482.77
2019-01-24T01:25:19.210Z,101478.08
2019-01-24T01:27:48.367Z,101484.02
2019-01-24T01:30:19.579Z,101488.46
2019-01-24T01:32:48.712Z,101479.44
2019-01-24T01:35:17.909Z,101483.11
2019-01-24T01:37:46.964Z,101483.33
2019-01-24T01:40:16.630Z,101487.01
2019-01-24T01:42:45.739Z,101479.86
2019-01-24T01:45:16.952Z,101482.95
2019-01-24T01:47:46.118Z,101479.80
2019-01-24T01:50:16.966Z,101477.19
2019-01-24T01:52:46.060Z,101477.98
2019-01-24T01:55:15.440Z,101482.43
2019-01-24T01:57:44.617Z,101476.64
2019-01-24T02:00:18.703Z,101489.47
2019-01-24T02:02:47.840Z,101492.28
2019-01-24T02:05:17.004Z,101489.64
2019-01-24T02:07:46.172Z,101490.81
2019-01-24T02:10:17.386Z,101487.80
2019-01-24T02:12:46.571Z,101488.29
2019-01-24T02:15:15.943Z,101494.88
2019-01-24T02:17:45.240Z,101490.30
2019-01-24T02:20:16.986Z,101491.06
2019-01-24T02:22:46.039Z,101498.48
2019-01-24T02:25:15.137Z,101494.09
2019-01-24T02:27:44.215Z,101494.42
2019-01-24T02:30:18.992Z,101499.01
2019-01-24T02:32:48.212Z,101492.69
2019-01-24T02:35:17.330Z,101505.64
2019-01-24T02:37:46.522Z,101495.27
2019-01-24T02:40:15.646Z,101500.53
2019-01-24T02:42:44.769Z,101509.00
2019-01-24T02:45:15.078Z,101512.28
2019-01-24T02:47:44.217Z,101515.55
2019-01-24T02:50:15.060Z,101509.13
2019-01-24T02:52:44.155Z,101518.53
2019-01-24T02:55:14.419Z,101511.36
2019-01-24T02:57:43.827Z,101524.70
2019-01-24T03:00:15.382Z,101515.16
2019-01-24T03:02:44.482Z,101522.65
2019-01-24T03:05:15.090Z,101531.45
2019-01-24T03:07:44.264Z,101528.44
2019-01-24T03:10:13.947Z,101534.02
2019-01-24T03:12:43.093Z,101521.16
2019-01-24T03:15:13.929Z,101523.42
2019-01-24T03:17:43.115Z,101522.52
2019-01-24T03:20:12.360Z,101528.11
2019-01-24T03:22:42.360Z,101534.80
2019-01-24T03:25:11.461Z,101529.39
2019-01-24T03:27:40.624Z,101530.44
2019-01-24T03:30:15.263Z,101534.42
2019-01-24T03:32:44.355Z,101537.91
2019-01-24T03:35:15.692Z,101534.67
2019-01-24T03:37:44.862Z,101546.40
2019-01-24T03:40:14.301Z,101538.63
2019-01-24T03:42:43.437Z,101539.39
2019-01-24T03:45:14.043Z,101542.23
2019-01-24T03:47:43.185Z,101544.40
2019-01-24T03:50:14.841Z,101546.21
2019-01-24T03:52:43.994Z,101558.97
2019-01-24T03:55:14.158Z,101555.36
2019-01-24T03:57:43.269Z,101560.17
2019-01-24T04:00:17.790Z,101559.98
2019-01-24T04:02:46.938Z,101559.00
2019-01-24T04:05:16.136Z,101554.95
2019-01-24T04:07:45.337Z,101558.83
2019-01-24T04:10:16.288Z,101556.19
2019-01-24T04:12:45.395Z,101561.19
2019-01-24T04:15:16.662Z,101556.64
2019-01-24T04:17:45.763Z,101552.18
2019-01-24T04:20:14.835Z,101555.98
2019-01-24T04:22:44.002Z,101558.23
2019-01-24T04:25:13.427Z,101554.42
2019-01-24T04:27:42.537Z,101555.78
2019-01-24T04:30:14.276Z,101553.67
2019-01-24T04:32:43.403Z,101553.98
2019-01-24T04:35:19.429Z,101552.78
2019-01-24T04:37:43.339Z,101553.55
2019-01-24T04:40:14.358Z,101561.36
2019-01-24T04:42:43.507Z,101560.70
2019-01-24T04:45:13.547Z,101557.36
2019-01-24T04:47:42.602Z,101557.47
2019-01-24T04:50:13.611Z,101561.53
2019-01-24T04:52:42.783Z,101561.92
2019-01-24T04:55:13.129Z,101565.59
2019-01-24T04:57:42.251Z,101571.12
2019-01-24T05:00:28.489Z,101572.67
2019-01-24T05:02:57.579Z,101584.12
2019-01-24T05:05:28.077Z,101577.05
2019-01-24T05:07:57.364Z,101588.98
2019-01-24T05:10:26.476Z,101585.36
2019-01-24T05:12:55.610Z,101591.60
2019-01-24T05:15:24.796Z,101595.52
2019-01-24T05:17:54.006Z,101593.30
2019-01-24T05:20:23.188Z,101605.67
2019-01-24T05:22:52.226Z,101601.67
2019-01-24T05:25:21.377Z,101613.07
2019-01-24T05:27:50.438Z,101617.19
2019-01-24T05:30:24.346Z,101615.25
2019-01-24T05:32:55.273Z,101616.03
2019-01-24T05:35:24.507Z,101616.87
2019-01-24T05:37:53.620Z,101609.91
2019-01-24T05:40:22.786Z,101611.92
2019-01-24T05:42:51.889Z,101619.38
2019-01-24T05:45:20.971Z,101619.69
2019-01-24T05:47:50.057Z,101617.59
2019-01-24T05:50:19.123Z,101617.70
2019-01-24T05:52:48.268Z,101614.69
2019-01-24T05:55:17.684Z,101616.35
2019-01-24T05:57:46.849Z,101617.61
2019-01-24T06:00:22.408Z,101625.30
2019-01-24T06:02:51.478Z,101624.47
2019-01-24T06:05:20.714Z,101624.38
2019-01-24T06:07:49.855Z,101626.30
2019-01-24T06:10:19.052Z,101624.27
2019-01-24T06:12:48.111Z,101629.93
2019-01-24T06:15:17.276Z,101622.13
2019-01-24T06:17:46.352Z,101625.81
2019-01-24T06:20:15.426Z,101630.05
2019-01-24T06:22:44.608Z,101631.80
2019-01-24T06:25:13.872Z,101629.09
2019-01-24T06:27:43.014Z,101638.33
2019-01-24T06:30:17.334Z,101637.02
2019-01-24T06:32:46.468Z,101645.08
2019-01-24T06:35:15.530Z,101649.95
2019-01-24T06:37:44.670Z,101652.41
2019-01-24T06:40:14.564Z,101657.09
2019-01-24T06:42:43.720Z,101662.07
2019-01-24T06:45:17.897Z,101660.73
2019-01-24T06:47:47.065Z,101658.54
2019-01-24T06:50:16.740Z,101670.13
2019-01-24T06:52:45.836Z,101667.97
2019-01-24T06:55:17.516Z,101669.62
2019-01-24T06:57:46.845Z,101672.08
2019-01-24T07:00:16.889Z,101674.66
2019-01-24T07:02:46.100Z,101674.61
2019-01-24T07:05:15.345Z,101686.32
2019-01-24T07:07:44.575Z,101687.35
2019-01-24T07:10:15.602Z,101693.30
2019-01-24T07:12:44.766Z,101697.36
2019-01-24T07:15:18.702Z,101696.78
2019-01-24T07:17:47.740Z,101695.43
2019-01-24T07:20:17.223Z,101696.52
2019-01-24T07:22:46.359Z,101702.71
2019-01-24T07:25:17.849Z,101702.91
2019-01-24T07:27:46.933Z,101709.36
2019-01-24T07:30:16.687Z,101705.25
2019-01-24T07:32:45.888Z,101711.39
2019-01-24T07:35:16.169Z,101717.69
2019-01-24T07:37:45.275Z,101717.84
2019-01-24T07:40:15.567Z,101718.22
2019-01-24T07:42:44.676Z,101720.09
2019-01-24T07:45:15.981Z,101726.54
2019-01-24T07:47:45.132Z,101718.00
2019-01-24T07:50:14.276Z,101730.55
2019-01-24T07:52:43.429Z,101722.95
2019-01-24T07:55:12.732Z,101730.34
2019-01-24T07:57:41.991Z,101737.00
2019-01-24T08:00:17.156Z,101726.38
2019-01-24T08:02:46.241Z,101731.53
2019-01-24T08:05:15.409Z,101736.52
2019-01-24T08:07:44.563Z,101734.48
2019-01-24T08:10:14.864Z,101741.25
2019-01-24T08:12:44.043Z,101739.38
2019-01-24T08:15:14.277Z,101737.79
2019-01-24T08:17:43.545Z,101744.88
2019-01-24T08:20:21.067Z,101736.58
2019-01-24T08:22:50.109Z,101737.06
2019-01-24T08:25:19.189Z,101740.50
2019-01-24T08:27:48.312Z,101742.31
2019-01-24T08:30:19.378Z,101740.06
2019-01-24T08:32:48.499Z,101740.90
2019-01-24T08:35:17.695Z,101744.84
2019-01-24T08:37:46.931Z,101742.66
2019-01-24T08:40:16.205Z,101747.11
2019-01-24T08:42:45.266Z,101743.36
2019-01-24T08:45:15.039Z,101750.66
2019-01-24T08:47:44.136Z,101753.76
2019-01-24T08:50:15.666Z,101749.22
2019-01-24T08:52:44.830Z,101752.45
2019-01-24T08:55:19.966Z,101749.34
2019-01-24T08:57:49.000Z,101751.30
2019-01-24T09:00:19.364Z,101747.09
2019-01-24T09:02:48.588Z,101751.82
2019-01-24T09:05:17.731Z,101760.72
2019-01-24T09:07:46.946Z,101760.86
2019-01-24T09:10:18.944Z,101758.91
2019-01-24T09:12:48.040Z,101760.80
2019-01-24T09:15:17.176Z,101760.84
2019-01-24T09:17:46.242Z,101769.37
2019-01-24T09:20:16.036Z,101764.66
2019-01-24T09:22:45.217Z,101770.52
2019-01-24T09:25:14.357Z,101771.74
2019-01-24T09:27:43.507Z,101768.13
2019-01-24T09:30:15.363Z,101773.38
2019-01-24T09:32:44.477Z,101774.87
2019-01-24T09:35:13.565Z,101778.86
2019-01-24T09:37:42.628Z,101765.80
2019-01-24T09:40:12.589Z,101778.80
2019-01-24T09:42:41.727Z,101772.41
2019-01-24T09:45:13.574Z,101769.48
2019-01-24T09:47:42.715Z,101774.59
2019-01-24T09:50:14.349Z,101777.42
2019-01-24T09:52:43.422Z,101778.84
2019-01-24T09:55:12.511Z,101782.25
2019-01-24T09:57:41.591Z,101788.52
2019-01-24T10:00:15.640Z,101788.02
2019-01-24T10:02:44.806Z,101787.75
2019-01-24T10:05:14.003Z,101793.48
2019-01-24T10:07:43.134Z,101786.70
2019-01-24T10:10:14.601Z,101787.05
2019-01-24T10:12:43.812Z,101793.90
2019-01-24T10:15:13.094Z,101788.41
2019-01-24T10:17:42.239Z,101793.03
2019-01-24T10:20:13.100Z,101794.77
2019-01-24T10:22:42.245Z,101789.41
2019-01-24T10:25:15.527Z,101800.67
2019-01-24T10:27:44.637Z,101798.20
2019-01-24T10:30:15.173Z,101804.14
2019-01-24T10:32:44.328Z,101792.54
2019-01-24T10:35:13.461Z,101791.53
2019-01-24T10:37:42.645Z,101792.52
2019-01-24T10:40:14.765Z,101790.46
2019-01-24T10:42:43.824Z,101793.69
2019-01-24T10:45:14.229Z,101796.20
2019-01-24T10:47:43.366Z,101785.06
2019-01-24T10:50:13.722Z,101797.55
2019-01-24T10:52:42.842Z,101800.75
2019-01-24T10:55:13.937Z,101792.89
2019-01-24T10:57:43.173Z,101781.53
2019-01-24T11:00:15.335Z,101793.17
2019-01-24T11:02:44.469Z,101791.99
2019-01-24T11:05:14.608Z,101792.26
2019-01-24T11:07:43.654Z,101789.87
2019-01-24T11:10:13.057Z,101795.27
2019-01-24T11:12:42.298Z,101793.41
2019-01-24T11:15:14.283Z,101790.41
2019-01-24T11:17:43.403Z,101791.26
2019-01-24T11:20:13.309Z,101789.97
2019-01-24T11:22:42.422Z,101800.37
2019-01-24T11:25:16.606Z,101795.16
2019-01-24T11:27:45.906Z,101798.33
2019-01-24T11:30:20.401Z,101804.53
2019-01-24T11:32:49.478Z,101803.58
2019-01-24T11:35:18.900Z,101805.94
2019-01-24T11:37:47.957Z,101808.00
2019-01-24T11:40:17.530Z,101802.42
2019-01-24T11:42:46.852Z,101800.67
2019-01-24T11:45:16.791Z,101800.52
2019-01-24T11:47:46.007Z,101798.36
2019-01-24T11:50:18.708Z,101791.58
2019-01-24T11:52:47.770Z,101799.59
2019-01-24T11:55:18.173Z,101800.19
2019-01-24T11:57:47.371Z,101818.33
2019-01-24T12:00:21.557Z,101799.53
2019-01-24T12:02:50.714Z,101804.17
2019-01-24T12:05:19.873Z,101805.38
2019-01-24T12:07:49.026Z,101802.23
2019-01-24T12:10:20.015Z,101806.03
2019-01-24T12:12:49.362Z,101795.09
2019-01-24T12:15:19.680Z,101797.69
2019-01-24T12:17:48.772Z,101792.88
2019-01-24T12:20:19.397Z,101798.02
2019-01-24T12:22:48.536Z,101796.73
2019-01-24T12:25:17.736Z,101793.36
2019-01-24T12:27:47.647Z,101795.53
2019-01-24T12:30:22.420Z,101792.36
2019-01-24T12:32:51.495Z,101797.34
2019-01-24T12:35:20.656Z,101795.74
2019-01-24T12:37:49.825Z,101801.23
2019-01-24T12:40:18.886Z,101796.82
2019-01-24T12:42:48.012Z,101796.84
2019-01-24T12:45:19.526Z,101802.02
2019-01-24T12:47:48.604Z,101797.75
2019-01-24T12:50:18.033Z,101795.56
2019-01-24T12:52:47.171Z,101798.31
2019-01-24T12:55:16.372Z,101800.75
2019-01-24T12:57:45.618Z,101804.50
2019-01-24T13:00:34.900Z,101798.70
2019-01-24T13:03:03.970Z,101790.27
2019-01-24T13:05:33.035Z,101788.59
2019-01-24T13:08:02.104Z,101796.05
2019-01-24T13:10:31.374Z,101794.31
2019-01-24T13:13:00.515Z,101792.52
2019-01-24T13:15:31.503Z,101800.27
2019-01-24T13:18:00.628Z,101797.27
2019-01-24T13:20:29.760Z,101795.16
2019-01-24T13:22:58.880Z,101791.95
2019-01-24T13:25:32.946Z,101806.27
2019-01-24T13:28:02.228Z,101797.55
2019-01-24T13:30:32.738Z,101800.08
2019-01-24T13:33:01.996Z,101798.13
2019-01-24T13:35:31.145Z,101801.30
2019-01-24T13:38:00.321Z,101801.23
2019-01-24T13:40:30.758Z,101799.63
2019-01-24T13:43:00.542Z,101807.31
2019-01-24T13:45:34.486Z,101804.28
2019-01-24T13:48:03.489Z,101799.94
2019-01-24T13:50:32.585Z,101799.75
2019-01-24T13:53:01.746Z,101794.86
2019-01-24T13:55:30.861Z,101787.49
2019-01-24T13:58:00.238Z,101799.42
2019-01-24T14:00:34.497Z,101800.35
2019-01-24T14:03:09.866Z,101800.00
2019-01-24T14:05:38.961Z,101799.61
2019-01-24T14:08:08.093Z,101795.63
2019-01-24T14:10:37.227Z,101800.07
2019-01-24T14:13:06.358Z,101792.77
2019-01-24T14:15:35.466Z,101796.07
2019-01-24T14:18:04.681Z,101796.86
2019-01-24T14:20:33.747Z,101793.56
2019-01-24T14:23:02.872Z,101801.95
2019-01-24T14:25:32.020Z,101798.67
2019-01-24T14:28:01.192Z,101800.00
2019-01-24T14:30:30.550Z,101806.08
2019-01-24T14:32:59.681Z,101808.39
2019-01-24T14:35:28.736Z,101805.88
2019-01-24T14:37:57.915Z,101806.03
2019-01-24T14:40:27.068Z,101798.59
2019-01-24T14:42:56.297Z,101801.88
2019-01-24T14:45:25.490Z,101799.11
2019-01-24T14:47:54.591Z,101804.16
2019-01-24T14:50:24.959Z,101809.63
2019-01-24T14:52:54.118Z,101802.92
2019-01-24T14:55:23.174Z,101806.18
2019-01-24T14:57:52.246Z,101810.71
2019-01-24T15:00:42.251Z,101812.81
2019-01-24T15:03:11.405Z,101816.56
2019-01-24T15:05:40.555Z,101819.64
2019-01-24T15:08:09.712Z,101816.61
2019-01-24T15:10:38.857Z,101815.58
2019-01-24T15:13:07.995Z,101820.94
2019-01-24T15:15:37.117Z,101824.48
2019-01-24T15:18:06.208Z,101817.91
2019-01-24T15:20:35.350Z,101812.64
2019-01-24T15:23:04.481Z,101811.40
2019-01-24T15:25:33.610Z,101814.31
2019-01-24T15:28:02.653Z,101813.27
2019-01-24T15:30:31.966Z,101814.52
2019-01-24T15:33:01.185Z,101814.20
2019-01-24T15:35:30.277Z,101813.41
2019-01-24T15:37:59.388Z,101813.64
2019-01-24T15:40:30.059Z,101819.81
2019-01-24T15:42:59.175Z,101812.14
2019-01-24T15:45:28.245Z,101816.20
2019-01-24T15:47:58.370Z,101807.23
2019-01-24T15:50:27.434Z,101811.68
2019-01-24T15:52:56.542Z,101812.66
2019-01-24T15:55:25.737Z,101812.85
2019-01-24T15:57:54.905Z,101812.67
2019-01-24T16:00:29.236Z,101812.67
2019-01-24T16:02:58.304Z,101812.20
2019-01-24T16:05:27.391Z,101813.56
2019-01-24T16:08:01.623Z,101815.05
2019-01-24T16:10:27.349Z,101813.11
2019-01-24T16:12:56.483Z,101813.56
2019-01-24T16:15:33.569Z,101811.55
2019-01-24T16:18:02.704Z,101806.02
2019-01-24T16:20:31.831Z,101807.62
2019-01-24T16:23:00.928Z,101796.91
2019-01-24T16:25:31.241Z,101800.08
2019-01-24T16:28:00.355Z,101790.28
2019-01-24T16:30:30.805Z,101793.76
2019-01-24T16:33:00.243Z,101802.34
2019-01-24T16:35:29.433Z,101797.30
2019-01-24T16:37:58.681Z,101796.19
2019-01-24T16:40:28.465Z,101793.03
2019-01-24T16:42:57.576Z,101803.95
2019-01-24T16:45:27.981Z,101806.03
2019-01-24T16:47:57.158Z,101799.73
2019-01-24T16:50:26.705Z,101802.97
2019-01-24T16:52:55.856Z,101801.03
2019-01-24T16:55:25.138Z,101798.97
2019-01-24T16:57:54.916Z,101801.69
2019-01-24T17:00:29.597Z,101805.55
2019-01-24T17:02:58.803Z,101803.81
2019-01-24T17:05:27.939Z,101798.11
2019-01-24T17:07:57.140Z,101798.45
2019-01-24T17:10:26.334Z,101800.44
2019-01-24T17:12:55.454Z,101805.02
2019-01-24T17:15:24.463Z,101798.91
2019-01-24T17:17:53.540Z,101802.45
2019-01-24T17:20:24.418Z,101798.56
2019-01-24T17:22:53.614Z,101804.05
2019-01-24T17:25:24.303Z,101806.91
2019-01-24T17:27:53.531Z,101803.67
2019-01-24T17:30:24.302Z,101797.72
2019-01-24T17:32:53.391Z,101800.05
2019-01-24T17:35:22.657Z,101799.53
2019-01-24T17:37:51.798Z,101798.25
2019-01-24T17:40:23.189Z,101802.14
2019-01-24T17:42:52.314Z,101796.41
2019-01-24T17:45:21.495Z,101794.97
2019-01-24T17:47:50.693Z,101798.52
2019-01-24T17:50:19.819Z,101790.63
2019-01-24T17:52:48.890Z,101791.98
2019-01-24T17:55:20.678Z,101794.97
2019-01-24T17:57:49.774Z,101795.60
2019-01-24T18:00:20.533Z,101792.38
2019-01-24T18:02:49.695Z,101803.36
2019-01-24T18:05:18.885Z,101792.75
2019-01-24T18:07:47.949Z,101797.41
2019-01-24T18:10:19.486Z,101797.17
2019-01-24T18:12:48.637Z,101803.42
2019-01-24T18:15:23.005Z,101802.14
2019-01-24T18:17:52.115Z,101806.79
2019-01-24T18:20:22.484Z,101808.80
2019-01-24T18:22:51.583Z,101814.02
2019-01-24T18:25:20.639Z,101810.16
2019-01-24T18:27:49.708Z,101807.94
2019-01-24T18:30:23.504Z,101811.49
2019-01-24T18:32:52.693Z,101819.04
2019-01-24T18:35:21.812Z,101810.14
2019-01-24T18:37:51.177Z,101813.16
2019-01-24T18:40:21.786Z,101810.59
2019-01-24T18:42:50.996Z,101812.61
2019-01-24T18:45:22.935Z,101815.31
2019-01-24T18:47:51.995Z,101814.83
2019-01-24T18:50:21.643Z,101818.03
2019-01-24T18:52:50.821Z,101820.81
2019-01-24T18:55:19.925Z,101815.80
2019-01-24T18:57:49.067Z,101817.16
2019-01-24T19:00:24.154Z,101817.44
2019-01-24T19:02:53.240Z,101821.64
2019-01-24T19:05:22.314Z,101825.95
2019-01-24T19:07:51.436Z,101825.39
2019-01-24T19:10:20.489Z,101825.44
2019-01-24T19:12:49.606Z,101837.18
2019-01-24T19:15:19.026Z,101839.11
2019-01-24T19:17:48.306Z,101837.44
2019-01-24T19:20:17.406Z,101836.16
2019-01-24T19:22:46.523Z,101835.24
2019-01-24T19:25:15.693Z,101834.30
2019-01-24T19:27:44.904Z,101832.59
2019-01-24T19:30:17.795Z,101824.09
2019-01-24T19:32:46.893Z,101825.82
2019-01-24T19:35:15.979Z,101815.27
2019-01-24T19:37:45.193Z,101824.92
2019-01-24T19:40:15.467Z,101831.84
2019-01-24T19:42:44.736Z,101836.59
2019-01-24T19:45:18.860Z,101838.84
2019-01-24T19:47:48.088Z,101834.84
2019-01-24T19:50:19.606Z,101842.20
2019-01-24T19:52:48.690Z,101841.31
2019-01-24T19:55:17.830Z,101839.90
2019-01-24T19:57:47.057Z,101836.16
2019-01-24T20:00:20.963Z,101829.00
2019-01-24T20:02:50.077Z,101825.96
2019-01-24T20:05:19.308Z,101827.90
2019-01-24T20:07:48.443Z,101832.14
2019-01-24T20:10:19.251Z,101831.82
2019-01-24T20:12:48.378Z,101839.11
2019-01-24T20:15:21.887Z,101841.51
2019-01-24T20:17:51.065Z,101847.11
2019-01-24T20:20:20.182Z,101840.14
2019-01-24T20:22:49.431Z,101843.52
2019-01-24T20:25:19.813Z,101841.78
2019-01-24T20:27:48.905Z,101838.99
2019-01-24T20:30:23.092Z,101837.64
2019-01-24T20:32:52.175Z,101830.36
2019-01-24T20:35:23.829Z,101832.09
2019-01-24T20:37:52.993Z,101841.62
2019-01-24T20:40:22.333Z,101838.15
2019-01-24T20:42:51.492Z,101832.33
2019-01-24T20:45:20.625Z,101838.63
2019-01-24T20:47:49.712Z,101834.38
2019-01-24T20:50:18.802Z,101833.07
2019-01-24T20:52:47.923Z,101830.13
2019-01-24T20:55:17.094Z,101835.09
2019-01-24T20:57:46.259Z,101828.20
2019-01-24T21:00:17.302Z,101823.70
2019-01-24T21:02:46.354Z,101831.42
2019-01-24T21:05:17.279Z,101837.88
2019-01-24T21:07:46.469Z,101824.59
2019-01-24T21:10:20.467Z,101827.30
2019-01-24T21:12:49.616Z,101824.20
2019-01-24T21:15:19.048Z,101824.31
2019-01-24T21:17:48.201Z,101819.95
2019-01-24T21:20:19.463Z,101821.14
2019-01-24T21:22:48.621Z,101820.30
2019-01-24T21:25:18.501Z,101820.42
2019-01-24T21:27:47.691Z,101821.72
2019-01-24T21:30:22.426Z,101825.78
2019-01-24T21:32:51.609Z,101835.43
2019-01-24T21:35:20.746Z,101833.44
2019-01-24T21:37:49.942Z,101827.52
2019-01-24T21:40:19.917Z,101828.46
2019-01-24T21:42:49.193Z,101829.17
2019-01-24T21:45:20.566Z,101830.37
2019-01-24T21:47:49.628Z,101840.63
2019-01-24T21:50:19.817Z,101835.42
2019-01-24T21:52:48.966Z,101831.09
2019-01-24T21:55:19.132Z,101829.78
2019-01-24T21:57:48.362Z,101831.19
2019-01-24T22:00:19.374Z,101832.27
2019-01-24T22:02:48.448Z,101830.29
2019-01-24T22:05:17.610Z,101824.28
2019-01-24T22:07:46.780Z,101822.26
2019-01-24T22:10:17.996Z,101828.75
2019-01-24T22:12:48.362Z,101825.15
2019-01-24T22:15:18.484Z,101825.06
2019-01-24T22:17:47.753Z,101816.73
2019-01-24T22:20:17.104Z,101819.87
2019-01-24T22:22:46.266Z,101819.81
2019-01-24T22:25:23.751Z,101823.50
2019-01-24T22:27:52.934Z,101831.16
2019-01-24T22:30:25.252Z,101826.64
2019-01-24T22:32:54.335Z,101824.59
2019-01-24T22:35:23.468Z,101819.23
2019-01-24T22:37:52.608Z,101817.73
2019-01-24T22:40:21.689Z,101820.22
2019-01-24T22:42:50.986Z,101821.35
2019-01-24T22:45:22.108Z,101829.83
2019-01-24T22:47:51.235Z,101819.89
2019-01-24T22:50:20.398Z,101815.98
2019-01-24T22:52:49.524Z,101825.50
2019-01-24T22:55:18.598Z,101815.68
2019-01-24T22:57:47.761Z,101820.19
2019-01-24T23:00:53.510Z,101827.11
2019-01-24T23:03:40.928Z,101822.89
2019-01-24T23:06:10.087Z,101817.00
2019-01-24T23:08:39.205Z,101822.45
2019-01-24T23:11:08.360Z,101819.00
2019-01-24T23:13:37.513Z,101823.83
2019-01-24T23:16:06.733Z,101822.47
2019-01-24T23:18:35.879Z,101818.09
2019-01-24T23:21:05.000Z,101810.70
2019-01-24T23:23:34.179Z,101815.27
2019-01-24T23:26:03.314Z,101816.82
2019-01-24T23:28:32.434Z,101820.36
2019-01-24T23:31:01.567Z,101812.41
2019-01-24T23:33:30.658Z,101806.92
2019-01-24T23:35:59.785Z,101806.25
2019-01-24T23:38:28.861Z,101801.51
2019-01-24T23:40:57.973Z,101806.41
2019-01-24T23:43:27.314Z,101803.55
2019-01-24T23:45:56.411Z,101806.36
2019-01-24T23:48:25.598Z,101801.83
2019-01-24T23:50:54.725Z,101798.30
2019-01-24T23:53:23.841Z,101800.16
2019-01-24T23:55:52.930Z,101800.84
2019-01-24T23:58:22.139Z,101800.67
